Time;durP1;ratioP1;P1;durP2;ratioP2;P2;SDS_P1;SDS_P2;PMS_P1;PMS_P2;Temp;Humidity;BMP_temperature;BMP_pressure;BME280_temperature;BME280_humidity;BME280_pressure;Samples;Min_cycle;Max_cycle;Signal;HPM_P1;HPM_P2
2022/04/05 00:00:59;;;;;;;10.20;5.90;;;5.60;99.90;;;;;;4167340;28;20473;-81
2022/04/05 00:03:03;;;;;;;8.70;5.97;;;5.60;99.90;;;;;;4167554;28;20501;-81
2022/04/05 00:05:07;;;;;;;8.70;6.03;;;5.50;99.90;;;;;;4168465;28;20449;-81
2022/04/05 00:07:09;;;;;;;10.47;6.27;;;5.50;99.90;;;;;;4167437;28;20472;-81
2022/04/05 00:09:11;;;;;;;10.63;6.70;;;5.40;99.90;;;;;;4167138;28;20446;-81
2022/04/05 00:11:13;;;;;;;10.80;6.63;;;5.40;99.90;;;;;;4162646;28;21027;-81
2022/04/05 00:13:15;;;;;;;9.87;6.80;;;5.40;99.90;;;;;;4159603;28;20472;-81
2022/04/05 00:15:17;;;;;;;10.27;6.93;;;5.30;99.90;;;;;;4168923;28;20462;-82
2022/04/05 00:17:20;;;;;;;10.90;6.83;;;5.30;99.90;;;;;;4166093;28;21005;-82
2022/04/05 00:19:22;;;;;;;12.03;7.10;;;5.40;99.90;;;;;;4164572;28;20496;-82
2022/04/05 00:21:28;;;;;;;10.07;7.10;;;5.20;99.90;;;;;;4166820;28;20903;-82
2022/04/05 00:23:30;;;;;;;11.63;6.70;;;5.20;99.90;;;;;;4166936;28;20540;-81
2022/04/05 00:25:32;;;;;;;10.10;6.60;;;5.20;99.90;;;;;;4167274;28;20490;-82
2022/04/05 00:27:34;;;;;;;10.33;6.50;;;5.20;99.90;;;;;;4168568;28;20490;-82
2022/04/05 00:29:36;;;;;;;11.40;7.20;;;5.20;99.90;;;;;;4175309;28;20461;-82
2022/04/05 00:31:38;;;;;;;11.47;7.43;;;5.20;99.90;;;;;;4174601;28;20458;-82
2022/04/05 00:33:41;;;;;;;10.33;6.83;;;5.20;99.90;;;;;;4160603;28;20556;-82
2022/04/05 00:35:45;;;;;;;10.33;6.33;;;5.20;99.90;;;;;;4166768;28;20482;-82
2022/04/05 00:37:49;;;;;;;10.87;6.63;;;5.20;99.90;;;;;;4166555;28;20485;-81
2022/04/05 00:39:51;;;;;;;15.40;7.23;;;5.10;99.90;;;;;;4169132;28;20544;-81
2022/04/05 00:41:53;;;;;;;10.93;7.07;;;5.10;99.90;;;;;;4152062;28;20546;-81
2022/04/05 00:43:55;;;;;;;9.80;6.43;;;5.20;99.90;;;;;;4167675;28;20784;-81
2022/04/05 00:45:57;;;;;;;11.00;7.20;;;5.20;99.90;;;;;;4169362;28;20490;-82
2022/04/05 00:48:00;;;;;;;13.07;8.10;;;5.10;99.90;;;;;;4171635;28;20486;-81
2022/04/05 00:50:03;;;;;;;13.93;8.57;;;5.10;99.90;;;;;;4172470;28;20517;-82
2022/04/05 00:52:05;;;;;;;13.43;8.93;;;5.10;99.90;;;;;;4179175;28;20457;-81
2022/04/05 00:54:10;;;;;;;12.90;8.40;;;5.10;99.90;;;;;;4180866;28;20687;-82
2022/04/05 00:56:14;;;;;;;14.20;8.60;;;5.00;99.90;;;;;;4176729;28;20473;-82
2022/04/05 00:58:17;;;;;;;13.20;8.50;;;5.00;99.90;;;;;;4176381;28;20483;-82
2022/04/05 01:00:19;;;;;;;13.27;8.70;;;5.00;99.90;;;;;;4180067;28;20502;-81
2022/04/05 01:02:22;;;;;;;14.33;8.73;;;5.00;99.90;;;;;;4181481;28;20501;-81
2022/04/05 01:04:24;;;;;;;13.33;8.50;;;5.00;99.90;;;;;;4180028;28;20492;-81
2022/04/05 01:06:28;;;;;;;14.33;8.40;;;5.10;99.90;;;;;;4187047;28;20454;-81
2022/04/05 01:08:30;;;;;;;14.33;8.47;;;5.00;99.90;;;;;;4194156;22;20493;-77
2022/04/05 01:10:34;;;;;;;13.83;9.17;;;4.90;99.90;;;;;;4179454;28;20547;-77
2022/04/05 01:12:36;;;;;;;14.27;9.07;;;4.90;99.90;;;;;;4179599;28;20518;-78
2022/04/05 01:14:39;;;;;;;14.20;8.70;;;5.00;99.90;;;;;;4179067;28;20445;-77
2022/04/05 01:16:41;;;;;;;13.80;8.50;;;4.90;99.90;;;;;;4178388;28;20472;-78
2022/04/05 01:18:45;;;;;;;13.40;8.27;;;5.00;99.90;;;;;;4178892;28;20497;-77
2022/04/05 01:20:47;;;;;;;15.37;8.23;;;5.00;99.90;;;;;;4180089;28;20880;-78
2022/04/05 01:22:50;;;;;;;13.67;8.17;;;5.00;99.90;;;;;;4178981;28;20503;-78
2022/04/05 01:24:53;;;;;;;13.33;8.47;;;5.00;99.90;;;;;;4178342;28;20469;-77
2022/04/05 01:26:57;;;;;;;13.13;8.40;;;5.00;99.90;;;;;;4179279;28;20507;-77
2022/04/05 01:28:59;;;;;;;13.20;8.50;;;5.00;99.90;;;;;;4176716;28;20489;-77
2022/04/05 01:31:02;;;;;;;11.80;7.77;;;5.00;99.90;;;;;;4178226;28;20532;-78
2022/04/05 01:33:04;;;;;;;13.70;8.60;;;5.00;99.90;;;;;;4168253;28;20712;-77
2022/04/05 01:35:07;;;;;;;14.93;8.90;;;5.00;99.90;;;;;;4178033;28;20480;-77
2022/04/05 01:37:11;;;;;;;12.63;8.17;;;5.00;99.90;;;;;;4179384;28;20547;-77
2022/04/05 01:39:12;;;;;;;13.67;8.47;;;5.00;99.90;;;;;;4179611;28;20913;-76
2022/04/05 01:41:15;;;;;;;15.50;8.93;;;4.90;99.90;;;;;;4176217;28;20470;-76
2022/04/05 01:43:17;;;;;;;14.47;7.87;;;4.90;99.90;;;;;;4178671;28;20478;-77
2022/04/05 01:45:19;;;;;;;13.43;8.40;;;5.00;99.90;;;;;;4189492;28;20457;-77
2022/04/05 01:47:21;;;;;;;14.50;9.00;;;4.90;99.90;;;;;;4179760;28;20460;-77
2022/04/05 01:49:23;;;;;;;14.43;8.17;;;4.90;99.90;;;;;;4172635;28;20473;-76
2022/04/05 01:51:25;;;;;;;13.90;7.67;;;4.90;99.90;;;;;;4172362;28;20887;-76
2022/04/05 01:53:27;;;;;;;12.73;7.10;;;4.90;99.90;;;;;;4179695;28;20537;-76
2022/04/05 01:55:29;;;;;;;12.20;7.47;;;4.90;99.90;;;;;;4175904;28;20464;-76
2022/04/05 01:57:32;;;;;;;11.43;7.07;;;4.90;99.90;;;;;;4167299;28;20461;-76
2022/04/05 01:59:36;;;;;;;11.77;7.10;;;4.90;99.90;;;;;;4179353;28;20514;-76
2022/04/05 02:01:37;;;;;;;10.90;6.80;;;4.90;99.90;;;;;;4179074;28;20465;-76
2022/04/05 02:03:39;;;;;;;10.40;7.00;;;5.60;99.90;;;;;;4182661;28;20483;-76
2022/04/05 02:05:41;;;;;;;9.50;6.17;;;5.30;99.90;;;;;;4182876;28;20464;-76
2022/04/05 02:07:43;;;;;;;10.87;6.90;;;4.90;99.90;;;;;;4169404;28;21040;-76
2022/04/05 02:09:49;;;;;;;11.20;7.17;;;4.90;99.90;;;;;;4178929;28;20499;-76
2022/04/05 02:11:53;;;;;;;11.40;6.90;;;4.80;99.90;;;;;;4182678;28;20678;-76
2022/04/05 02:13:56;;;;;;;11.83;7.00;;;4.80;99.90;;;;;;4182615;28;20464;-76
2022/04/05 02:16:01;;;;;;;10.67;6.37;;;4.80;99.90;;;;;;4169806;28;20715;-76
2022/04/05 02:18:03;;;;;;;10.33;6.53;;;4.80;99.90;;;;;;4169712;28;20469;-77
2022/04/05 02:20:06;;;;;;;10.00;6.40;;;4.80;99.90;;;;;;4182433;28;20480;-76
2022/04/05 02:22:07;;;;;;;9.87;6.20;;;4.80;99.90;;;;;;4187868;28;20495;-76
2022/04/05 02:24:09;;;;;;;10.20;5.77;;;4.80;99.90;;;;;;4184441;28;20469;-76
2022/04/05 02:26:12;;;;;;;9.70;6.33;;;4.80;99.90;;;;;;4182326;28;20881;-76
2022/04/05 02:28:14;;;;;;;9.97;6.30;;;4.70;99.90;;;;;;4181824;28;20492;-76
2022/04/05 02:30:17;;;;;;;10.17;6.27;;;4.80;99.90;;;;;;4182047;28;20457;-76
2022/04/05 02:32:18;;;;;;;11.20;6.10;;;5.00;99.90;;;;;;4177709;28;20474;-77
2022/04/05 02:34:20;;;;;;;10.03;6.13;;;4.70;99.90;;;;;;4173465;28;20457;-76
2022/04/05 02:36:22;;;;;;;9.40;6.27;;;4.70;99.90;;;;;;4174028;28;20470;-76
2022/04/05 02:38:24;;;;;;;10.50;6.63;;;4.70;99.90;;;;;;4166626;28;20458;-76
2022/04/05 02:40:27;;;;;;;10.20;6.27;;;4.70;99.90;;;;;;4181141;28;20813;-76
2022/04/05 02:42:28;;;;;;;12.50;6.93;;;4.70;99.90;;;;;;4173429;28;20834;-77
2022/04/05 02:44:30;;;;;;;9.67;6.03;;;4.70;99.90;;;;;;4179817;28;20908;-77
2022/04/05 02:46:34;;;;;;;11.83;7.00;;;5.90;99.90;;;;;;4181770;28;20501;-78
2022/04/05 02:48:37;;;;;;;12.13;6.93;;;4.70;99.90;;;;;;4184704;28;20476;-78
2022/04/05 02:50:39;;;;;;;10.03;5.83;;;4.60;99.90;;;;;;4186613;28;20528;-78
2022/04/05 02:52:41;;;;;;;12.43;6.73;;;4.60;99.90;;;;;;4180166;28;20472;-78
2022/04/05 02:54:43;;;;;;;10.17;6.17;;;4.60;99.90;;;;;;4181481;28;20457;-77
2022/04/05 02:56:45;;;;;;;12.43;6.73;;;4.40;99.90;;;;;;4165234;28;20977;-77
2022/04/05 02:58:48;;;;;;;11.60;6.33;;;4.70;99.90;;;;;;4179835;28;20489;-78
2022/04/05 03:00:49;;;;;;;11.50;6.80;;;4.60;99.90;;;;;;4176711;28;20473;-78
2022/04/05 03:02:52;;;;;;;12.53;6.77;;;4.60;99.90;;;;;;4181578;28;20865;-78
2022/04/05 03:04:54;;;;;;;8.50;5.90;;;4.60;99.90;;;;;;4182889;28;20835;-78
2022/04/05 03:06:56;;;;;;;10.27;6.13;;;4.60;99.90;;;;;;4181668;28;20464;-78
2022/04/05 03:08:58;;;;;;;10.30;5.97;;;5.20;99.90;;;;;;4176891;28;20500;-79
2022/04/05 03:11:01;;;;;;;8.33;5.50;;;4.50;99.90;;;;;;4181734;28;20457;-78
2022/04/05 03:13:04;;;;;;;9.87;5.70;;;4.50;99.90;;;;;;4177197;28;20501;-78
2022/04/05 03:15:08;;;;;;;8.43;5.20;;;4.50;99.90;;;;;;4180293;28;20453;-78
2022/04/05 03:17:10;;;;;;;9.50;5.50;;;4.50;99.90;;;;;;4173747;28;20863;-79
2022/04/05 03:19:13;;;;;;;8.90;5.30;;;4.50;99.90;;;;;;4181547;28;20974;-78
2022/04/05 03:21:15;;;;;;;9.60;5.10;;;4.60;99.90;;;;;;4183240;28;20833;-78
2022/04/05 03:23:17;;;;;;;8.67;5.40;;;4.50;99.90;;;;;;4183605;28;20453;-78
2022/04/05 03:25:19;;;;;;;9.77;5.47;;;4.50;99.90;;;;;;4180703;28;20841;-79
2022/04/05 03:27:21;;;;;;;7.90;4.90;;;4.50;99.90;;;;;;4185176;28;20456;-79
2022/04/05 03:29:22;;;;;;;9.40;5.50;;;4.50;99.90;;;;;;4182461;28;20471;-79
2022/04/05 03:31:25;;;;;;;7.47;4.70;;;5.20;99.90;;;;;;4182882;28;20460;-79
2022/04/05 03:33:27;;;;;;;8.80;5.10;;;4.50;99.90;;;;;;4176538;28;20547;-79
2022/04/05 03:35:30;;;;;;;8.63;4.93;;;4.50;99.90;;;;;;4183499;28;20503;-80
2022/04/05 03:37:32;;;;;;;7.57;4.57;;;4.50;99.90;;;;;;4183729;28;20803;-79
2022/04/05 03:39:34;;;;;;;10.57;5.03;;;4.50;99.90;;;;;;4184303;28;20519;-79
2022/04/05 03:41:36;;;;;;;8.93;4.97;;;4.50;99.90;;;;;;4182350;28;20465;-79
2022/04/05 03:43:38;;;;;;;8.37;4.53;;;4.50;99.90;;;;;;4185559;28;20461;-79
2022/04/05 03:45:40;;;;;;;8.33;4.37;;;4.50;99.90;;;;;;4186341;28;20453;-79
2022/04/05 03:47:42;;;;;;;9.40;5.13;;;4.50;99.90;;;;;;4189413;28;20476;-78
2022/04/05 03:49:44;;;;;;;8.60;4.83;;;4.50;99.90;;;;;;4193043;28;20487;-79
2022/04/05 03:51:47;;;;;;;7.63;4.60;;;4.50;99.90;;;;;;4189639;28;20495;-79
2022/04/05 03:53:52;;;;;;;7.37;4.33;;;4.40;99.90;;;;;;4190860;28;20515;-79
2022/04/05 03:55:54;;;;;;;9.20;5.00;;;4.50;99.90;;;;;;4190067;28;20973;-79
2022/04/05 03:57:56;;;;;;;11.07;5.00;;;4.50;99.90;;;;;;4186644;28;20562;-79
2022/04/05 03:59:57;;;;;;;8.20;4.60;;;4.50;99.90;;;;;;4190452;28;20485;-79
2022/04/05 04:01:59;;;;;;;7.60;4.30;;;4.50;99.90;;;;;;4190850;28;20566;-80
2022/04/05 04:04:01;;;;;;;8.77;4.93;;;4.50;99.90;;;;;;4193130;28;20473;-79
2022/04/05 04:06:03;;;;;;;6.90;4.13;;;4.50;99.90;;;;;;4195085;28;20456;-80
2022/04/05 04:08:07;;;;;;;8.00;4.63;;;4.90;99.90;;;;;;4193519;28;20472;-79
2022/04/05 04:10:09;;;;;;;7.17;4.50;;;4.50;99.90;;;;;;4193293;28;20528;-79
2022/04/05 04:12:11;;;;;;;7.87;4.57;;;4.50;99.90;;;;;;4194592;28;20471;-79
2022/04/05 04:14:13;;;;;;;8.47;4.60;;;4.50;99.90;;;;;;4193091;28;20467;-79
2022/04/05 04:16:15;;;;;;;9.40;5.53;;;4.50;99.90;;;;;;4195365;28;20455;-79
2022/04/05 04:18:17;;;;;;;7.90;4.73;;;4.50;99.90;;;;;;4189230;28;20483;-81
2022/04/05 04:20:19;;;;;;;9.20;5.07;;;4.50;99.90;;;;;;4194964;28;20493;-79
2022/04/05 04:22:21;;;;;;;9.87;5.30;;;4.50;99.90;;;;;;4192372;28;20456;-80
2022/04/05 04:24:24;;;;;;;8.33;4.97;;;4.50;99.90;;;;;;4190001;28;20507;-80
2022/04/05 04:26:26;;;;;;;10.20;5.70;;;4.50;99.90;;;;;;4192301;28;20457;-80
2022/04/05 04:28:28;;;;;;;11.43;6.40;;;4.50;99.90;;;;;;4191888;28;20544;-81
2022/04/05 04:30:30;;;;;;;12.47;6.77;;;4.50;99.90;;;;;;4182038;28;20492;-80
2022/04/05 04:32:31;;;;;;;11.33;6.60;;;4.50;99.90;;;;;;4181316;28;20468;-80
2022/04/05 04:34:34;;;;;;;12.70;6.97;;;4.50;99.90;;;;;;4182984;28;20455;-80
2022/04/05 04:36:35;;;;;;;13.40;7.33;;;4.60;99.90;;;;;;4181837;28;20845;-80
2022/04/05 04:38:41;;;;;;;15.87;8.20;;;4.60;99.90;;;;;;4183843;28;20468;-80
2022/04/05 04:40:47;;;;;;;13.90;7.63;;;4.60;99.90;;;;;;4174241;28;20886;-80
2022/04/05 04:42:49;;;;;;;16.77;8.57;;;4.60;99.90;;;;;;4182853;28;20508;-80
2022/04/05 04:44:51;;;;;;;16.73;9.50;;;4.70;99.90;;;;;;4187963;28;20461;-80
2022/04/05 04:46:53;;;;;;;18.60;9.37;;;4.70;99.90;;;;;;4182176;28;20533;-80
2022/04/05 04:48:55;;;;;;;17.10;9.50;;;4.70;99.90;;;;;;4178648;28;20488;-81
2022/04/05 04:50:57;;;;;;;15.53;8.83;;;4.70;99.90;;;;;;4179229;28;20445;-79
2022/04/05 04:52:58;;;;;;;18.87;10.53;;;4.80;99.90;;;;;;4181271;28;20456;-81
2022/04/05 04:55:00;;;;;;;17.50;9.47;;;4.70;99.90;;;;;;4180553;28;20511;-80
2022/04/05 04:57:04;;;;;;;19.37;10.73;;;4.80;99.90;;;;;;4165628;28;20470;-80
2022/04/05 04:59:06;;;;;;;18.80;10.03;;;4.80;99.90;;;;;;4174607;28;20480;-80
2022/04/05 05:01:08;;;;;;;20.37;9.90;;;4.80;99.90;;;;;;4174691;28;20482;-80
2022/04/05 05:03:11;;;;;;;17.20;9.20;;;4.80;99.90;;;;;;4181080;28;20456;-80
2022/04/05 05:05:12;;;;;;;18.60;10.77;;;4.90;99.90;;;;;;4180736;28;20461;-80
2022/04/05 05:07:15;;;;;;;16.47;9.40;;;4.90;99.90;;;;;;4176400;28;20473;-79
2022/04/05 05:09:16;;;;;;;17.17;9.77;;;5.10;99.90;;;;;;4181072;28;20485;-80
2022/04/05 05:11:18;;;;;;;15.53;9.10;;;5.20;99.90;;;;;;4182650;28;20551;-80
2022/04/05 05:13:22;;;;;;;14.90;8.77;;;4.90;99.90;;;;;;4178581;28;20507;-80
2022/04/05 05:15:24;;;;;;;19.53;9.27;;;5.00;99.90;;;;;;4176338;28;20894;-79
2022/04/05 05:17:25;;;;;;;17.07;9.30;;;4.90;99.90;;;;;;4180247;28;20828;-79
2022/04/05 05:19:27;;;;;;;16.03;9.00;;;5.10;99.90;;;;;;4173733;28;20489;-80
2022/04/05 05:21:30;;;;;;;13.63;7.90;;;4.90;99.90;;;;;;4164687;28;20450;-80
2022/04/05 05:23:32;;;;;;;15.57;8.50;;;4.90;99.90;;;;;;4169795;28;20478;-80
2022/04/05 05:25:33;;;;;;;14.60;8.67;;;4.90;99.90;;;;;;4180289;28;20463;-80
2022/04/05 05:27:37;;;;;;;16.27;8.97;;;4.90;99.90;;;;;;4180504;28;20444;-80
2022/04/05 05:29:40;;;;;;;20.33;9.50;;;4.90;99.90;;;;;;4181510;28;20449;-79
2022/04/05 05:31:43;;;;;;;16.23;8.87;;;4.90;99.90;;;;;;4174608;28;20845;-79
2022/04/05 05:33:45;;;;;;;18.03;9.73;;;5.00;99.90;;;;;;4177702;28;20457;-80
2022/04/05 05:35:47;;;;;;;18.60;9.60;;;5.20;99.90;;;;;;4177296;28;20464;-79
2022/04/05 05:37:50;;;;;;;18.10;9.87;;;5.00;99.90;;;;;;4182655;28;20484;-80
2022/04/05 05:39:52;;;;;;;21.63;11.83;;;5.00;99.90;;;;;;4184718;28;20675;-80
2022/04/05 05:41:54;;;;;;;21.93;11.87;;;5.10;99.90;;;;;;4185118;28;20464;-80
2022/04/05 05:43:56;;;;;;;26.60;13.47;;;5.10;99.90;;;;;;4184963;28;20465;-80
2022/04/05 05:46:03;;;;;;;28.13;13.33;;;5.10;99.90;;;;;;4185466;28;20467;-80
2022/04/05 05:48:06;;;;;;;24.27;13.00;;;5.20;99.90;;;;;;4176192;28;20485;-80
2022/04/05 05:50:10;;;;;;;25.87;13.13;;;5.20;99.90;;;;;;4184783;28;20448;-80
2022/04/05 05:52:12;;;;;;;23.23;12.50;;;5.30;99.90;;;;;;4185719;28;20463;-80
2022/04/05 05:54:14;;;;;;;22.03;12.17;;;5.30;99.90;;;;;;4185819;28;20465;-80
2022/04/05 05:56:16;;;;;;;22.57;12.23;;;5.30;99.90;;;;;;4184880;28;20503;-80
2022/04/05 05:58:17;;;;;;;21.13;11.57;;;5.40;99.90;;;;;;4185732;28;20469;-80
2022/04/05 06:00:22;;;;;;;17.93;9.87;;;5.50;99.90;;;;;;4188990;28;21086;-80
2022/04/05 06:02:25;;;;;;;17.77;9.67;;;5.50;99.90;;;;;;4184362;28;20808;-80
2022/04/05 06:04:27;;;;;;;14.27;7.63;;;5.50;99.90;;;;;;4185885;28;20492;-80
2022/04/05 06:06:29;;;;;;;13.43;7.53;;;5.60;99.90;;;;;;4184906;28;20457;-80
2022/04/05 06:08:31;;;;;;;10.23;6.50;;;5.60;99.90;;;;;;4184660;28;20944;-80
2022/04/05 06:10:33;;;;;;;11.40;6.73;;;5.60;99.90;;;;;;4188537;28;20457;-80
2022/04/05 06:12:38;;;;;;;8.40;5.93;;;5.70;99.90;;;;;;4188101;28;20483;-80
2022/04/05 06:14:39;;;;;;;9.43;5.77;;;5.70;99.90;;;;;;4178003;28;20978;-80
2022/04/05 06:16:41;;;;;;;8.60;5.60;;;5.70;99.90;;;;;;4183566;28;20473;-80
2022/04/05 06:18:45;;;;;;;8.23;5.07;;;5.70;99.90;;;;;;4198554;28;20495;-80
2022/04/05 06:20:46;;;;;;;6.50;4.77;;;5.80;99.90;;;;;;4189251;28;20488;-80
2022/04/05 06:22:50;;;;;;;7.40;4.10;;;5.80;99.90;;;;;;4183988;28;20460;-80
2022/04/05 06:24:52;;;;;;;6.30;4.50;;;5.90;99.90;;;;;;4172502;28;20864;-80
2022/04/05 06:26:56;;;;;;;6.97;4.77;;;5.90;99.90;;;;;;4184966;28;20449;-80
2022/04/05 06:28:58;;;;;;;6.33;4.33;;;5.90;99.90;;;;;;4185047;28;20477;-80
2022/04/05 06:31:00;;;;;;;5.90;4.10;;;5.90;99.90;;;;;;4180692;28;20938;-80
2022/04/05 06:33:07;;;;;;;6.53;3.63;;;6.00;99.90;;;;;;4183782;28;20461;-80
2022/04/05 06:35:12;;;;;;;5.50;3.80;;;6.00;99.90;;;;;;4184431;28;20481;-80
2022/04/05 06:37:13;;;;;;;6.10;3.87;;;6.00;99.90;;;;;;4181468;28;20453;-81
2022/04/05 06:39:17;;;;;;;4.30;3.33;;;6.10;99.90;;;;;;4175237;28;20956;-81
2022/04/05 06:41:19;;;;;;;5.00;3.50;;;6.10;99.90;;;;;;4180240;28;20491;-80
2022/04/05 06:43:23;;;;;;;4.60;3.50;;;6.10;99.90;;;;;;4180794;28;20453;-80
2022/04/05 06:45:25;;;;;;;3.83;2.93;;;6.20;99.90;;;;;;4182958;28;20452;-80
2022/04/05 06:47:27;;;;;;;4.33;3.03;;;6.20;99.90;;;;;;4182136;28;20966;-80
2022/04/05 06:49:29;;;;;;;4.27;3.10;;;6.20;99.90;;;;;;4180241;28;20513;-79
2022/04/05 06:51:32;;;;;;;5.00;3.07;;;6.20;99.90;;;;;;4182336;28;20472;-81
2022/04/05 06:53:37;;;;;;;4.67;3.30;;;6.30;99.90;;;;;;4189418;28;20489;-81
2022/04/05 06:55:39;;;;;;;5.87;3.13;;;6.30;99.90;;;;;;4187220;28;20511;-81
2022/04/05 06:57:41;;;;;;;3.73;2.57;;;6.40;99.90;;;;;;4188051;28;20465;-81
2022/04/05 06:59:43;;;;;;;3.80;2.73;;;6.30;99.90;;;;;;4186667;28;20499;-81
2022/04/05 07:01:45;;;;;;;4.70;2.17;;;6.40;99.90;;;;;;4184014;28;20470;-81
2022/04/05 07:03:47;;;;;;;3.10;2.33;;;6.40;99.90;;;;;;4185688;28;20466;-81
2022/04/05 07:05:49;;;;;;;3.00;2.27;;;6.50;99.90;;;;;;4183795;28;20800;-81
2022/04/05 07:07:52;;;;;;;3.07;2.17;;;6.60;99.90;;;;;;4182416;28;20480;-80
2022/04/05 07:09:54;;;;;;;3.33;2.40;;;6.50;99.90;;;;;;4177477;28;20930;-82
2022/04/05 07:11:56;;;;;;;3.20;2.33;;;6.40;99.90;;;;;;4180723;28;20957;-80
2022/04/05 07:13:58;;;;;;;2.87;2.10;;;6.80;99.90;;;;;;4179012;28;20536;-80
2022/04/05 07:16:02;;;;;;;3.40;1.90;;;6.80;99.90;;;;;;4183082;28;20473;-80
2022/04/05 07:18:03;;;;;;;2.70;1.67;;;6.60;99.90;;;;;;4179850;28;20500;-80
2022/04/05 07:20:09;;;;;;;8.80;1.83;;;6.70;99.90;;;;;;4184142;28;20523;-80
2022/04/05 07:22:11;;;;;;;1.87;1.60;;;6.70;99.90;;;;;;4182362;28;20449;-82
2022/04/05 07:24:14;;;;;;;3.63;1.80;;;6.70;99.90;;;;;;4180979;28;20441;-81
2022/04/05 07:26:16;;;;;;;3.07;1.70;;;6.70;99.90;;;;;;4181762;28;20462;-80
2022/04/05 07:28:18;;;;;;;3.10;1.57;;;6.80;99.90;;;;;;4180574;28;20535;-81
2022/04/05 07:30:20;;;;;;;1.90;1.30;;;6.80;99.90;;;;;;4183579;28;20457;-81
2022/04/05 07:32:22;;;;;;;1.97;1.60;;;7.10;99.90;;;;;;4183423;28;20491;-81
2022/04/05 07:34:24;;;;;;;1.90;1.40;;;6.80;99.90;;;;;;4184165;28;20472;-81
2022/04/05 07:36:26;;;;;;;1.77;1.53;;;6.90;99.90;;;;;;4176289;28;20490;-80
2022/04/05 07:38:28;;;;;;;1.87;1.47;;;6.90;99.90;;;;;;4181898;28;20520;-83
2022/04/05 07:42:50;;;;;;;2.47;1.40;;;7.00;99.90;;;;;;4171629;28;20470;-81
2022/04/05 07:44:52;;;;;;;1.57;1.23;;;7.10;99.90;;;;;;4177894;28;20465;-80
2022/04/05 07:46:53;;;;;;;1.87;1.40;;;7.10;99.90;;;;;;4182241;28;21033;-79
2022/04/05 07:48:55;;;;;;;4.07;1.60;;;7.10;99.90;;;;;;4180949;28;20920;-80
2022/04/05 07:50:57;;;;;;;3.00;1.50;;;7.10;99.90;;;;;;4173042;28;20462;-80
2022/04/05 07:52:59;;;;;;;3.17;1.47;;;7.10;99.90;;;;;;4179516;28;20466;-80
2022/04/05 07:55:01;;;;;;;2.17;1.50;;;7.10;99.90;;;;;;4181728;28;20447;-79
2022/04/05 07:57:08;;;;;;;2.23;1.37;;;7.10;99.90;;;;;;4171395;28;20482;-81
2022/04/05 07:59:11;;;;;;;2.10;1.50;;;7.10;99.90;;;;;;4181155;28;20477;-79
2022/04/05 08:01:13;;;;;;;1.63;1.33;;;7.10;99.90;;;;;;4186312;28;20485;-79
2022/04/05 08:03:14;;;;;;;2.60;1.57;;;7.10;99.90;;;;;;4181404;28;20883;-80
2022/04/05 08:05:16;;;;;;;4.27;1.73;;;7.10;99.90;;;;;;4182186;28;20458;-78
2022/04/05 08:07:18;;;;;;;1.87;1.57;;;7.20;99.90;;;;;;4183652;28;20581;-79
2022/04/05 08:09:22;;;;;;;1.80;1.40;;;7.20;99.90;;;;;;4178536;28;20463;-78
2022/04/05 08:11:24;;;;;;;2.30;1.47;;;7.10;99.90;;;;;;4182445;28;20459;-78
2022/04/05 08:13:27;;;;;;;2.40;1.50;;;7.20;99.90;;;;;;4181634;28;20462;-78
2022/04/05 08:15:29;;;;;;;2.23;1.50;;;7.20;99.90;;;;;;4175542;28;21005;-78
2022/04/05 08:17:31;;;;;;;2.07;1.23;;;7.20;99.90;;;;;;4181479;28;20527;-78
2022/04/05 08:19:33;;;;;;;2.00;1.37;;;7.30;99.90;;;;;;4181312;28;20994;-78
2022/04/05 08:21:35;;;;;;;2.33;1.63;;;7.30;99.90;;;;;;4180764;28;20899;-78
2022/04/05 08:23:37;;;;;;;2.50;1.67;;;7.30;99.90;;;;;;4180909;28;20472;-79
2022/04/05 08:25:38;;;;;;;2.93;1.60;;;7.30;99.90;;;;;;4181509;28;20458;-77
2022/04/05 08:27:41;;;;;;;2.50;1.67;;;7.30;99.90;;;;;;4180371;28;20475;-78
2022/04/05 08:29:44;;;;;;;2.27;1.60;;;7.40;99.90;;;;;;4180509;28;20464;-77
2022/04/05 08:31:45;;;;;;;5.20;1.60;;;7.40;99.90;;;;;;4177773;28;20472;-77
2022/04/05 08:33:47;;;;;;;5.57;1.73;;;7.30;99.90;;;;;;4183206;28;20459;-77
2022/04/05 08:35:49;;;;;;;3.47;1.50;;;7.30;99.90;;;;;;4186825;28;20466;-78
2022/04/05 08:37:54;;;;;;;4.87;1.80;;;7.20;99.90;;;;;;4180479;28;20477;-78
2022/04/05 08:39:56;;;;;;;4.20;1.73;;;7.10;99.90;;;;;;4181164;28;20956;-78
2022/04/05 08:41:58;;;;;;;6.27;1.47;;;7.20;99.90;;;;;;4183296;28;20491;-78
2022/04/05 08:44:01;;;;;;;2.90;1.50;;;7.00;99.90;;;;;;4180538;28;20456;-77
2022/04/05 08:46:06;;;;;;;2.77;1.40;;;7.00;99.90;;;;;;4180149;28;20966;-77
2022/04/05 08:48:09;;;;;;;5.77;2.40;;;6.80;99.90;;;;;;4180045;28;20950;-77
2022/04/05 08:50:14;;;;;;;6.73;2.00;;;6.80;99.90;;;;;;4176884;28;20474;-78
2022/04/05 08:52:16;;;;;;;4.73;1.90;;;6.80;99.90;;;;;;4180442;28;20450;-78
2022/04/05 08:54:18;;;;;;;2.60;1.77;;;6.80;99.90;;;;;;4176135;28;20470;-78
2022/04/05 08:56:20;;;;;;;10.20;2.23;;;6.70;99.90;;;;;;4180326;28;20963;-78
2022/04/05 08:58:22;;;;;;;3.93;1.70;;;6.70;99.90;;;;;;4178951;28;20489;-79
2022/04/05 09:00:26;;;;;;;5.47;2.33;;;6.60;99.90;;;;;;4181182;28;20743;-79
2022/04/05 09:02:30;;;;;;;5.70;2.37;;;6.60;99.90;;;;;;4182073;28;20465;-79
2022/04/05 09:04:33;;;;;;;7.40;2.10;;;6.60;99.90;;;;;;4180821;28;21052;-79
2022/04/05 09:06:36;;;;;;;8.27;2.03;;;6.60;99.90;;;;;;4181086;28;20853;-79
2022/04/05 09:08:38;;;;;;;5.13;2.10;;;6.60;99.90;;;;;;4177499;28;20498;-78
2022/04/05 09:10:40;;;;;;;7.97;2.30;;;6.60;99.90;;;;;;4182397;28;20807;-78
2022/04/05 09:12:44;;;;;;;7.43;2.20;;;6.60;99.90;;;;;;4177242;28;20488;-78
2022/04/05 09:14:46;;;;;;;7.23;2.47;;;6.60;99.90;;;;;;4179041;28;20458;-78
2022/04/05 09:16:47;;;;;;;3.47;2.13;;;6.60;99.90;;;;;;4182318;28;20532;-79
2022/04/05 09:18:53;;;;;;;8.57;2.17;;;6.80;99.90;;;;;;4176716;28;20484;-78
2022/04/05 09:20:55;;;;;;;9.70;2.50;;;6.70;99.90;;;;;;4178295;28;20483;-79
2022/04/05 09:23:01;;;;;;;5.67;2.30;;;6.70;99.90;;;;;;4184767;28;20473;-79
2022/04/05 09:25:08;;;;;;;6.90;2.50;;;6.70;99.90;;;;;;4184175;28;20476;-79
2022/04/05 09:27:21;;;;;;;10.33;2.57;;;6.80;99.90;;;;;;4179546;28;20465;-79
2022/04/05 09:29:23;;;;;;;7.77;2.50;;;6.90;99.90;;;;;;4181601;28;20469;-80
2022/04/05 09:31:25;;;;;;;5.27;2.33;;;7.20;99.90;;;;;;4175133;28;20469;-80
2022/04/05 09:33:30;;;;;;;8.50;2.60;;;6.90;99.90;;;;;;4183083;28;20939;-83
2022/04/05 09:35:43;;;;;;;9.67;2.43;;;6.90;99.90;;;;;;4185622;28;20461;-80
2022/04/05 09:37:45;;;;;;;5.10;2.53;;;6.90;99.90;;;;;;4181076;28;20539;-79
2022/04/05 09:39:47;;;;;;;6.73;2.50;;;6.90;99.90;;;;;;4179448;28;20493;-79
2022/04/05 09:41:52;;;;;;;9.77;3.10;;;7.00;99.90;;;;;;4180848;28;20489;-79
2022/04/05 09:43:57;;;;;;;8.70;2.93;;;7.00;99.90;;;;;;4175981;28;20497;-79
2022/04/05 09:46:00;;;;;;;10.77;3.30;;;7.10;99.90;;;;;;4179207;28;20528;-79
2022/04/05 09:48:05;;;;;;;7.73;3.17;;;7.10;99.90;;;;;;4177262;28;21006;-80
2022/04/05 09:50:10;;;;;;;7.57;2.70;;;7.10;99.90;;;;;;4180661;28;20454;-80
2022/04/05 09:52:27;;;;;;;5.13;2.53;;;7.10;99.90;;;;;;4177786;28;20509;-80
2022/04/05 09:54:31;;;;;;;7.73;3.30;;;7.00;99.90;;;;;;4178951;28;20843;-80
2022/04/05 09:56:34;;;;;;;12.73;4.40;;;7.00;99.90;;;;;;4183489;28;20470;-81
2022/04/05 09:58:36;;;;;;;14.93;4.93;;;7.00;99.90;;;;;;4195198;28;20870;-81
2022/04/05 10:00:38;;;;;;;12.00;4.10;;;7.00;99.90;;;;;;4195754;28;20462;-81
2022/04/05 10:03:02;;;;;;;10.87;4.40;;;7.10;99.90;;;;;;4186069;28;20505;-80
2022/04/05 10:05:08;;;;;;;12.57;4.10;;;7.10;99.90;;;;;;4173564;28;20458;-80
2022/04/05 10:07:10;;;;;;;14.03;3.57;;;7.10;99.90;;;;;;4182548;28;20475;-80
2022/04/05 10:09:14;;;;;;;7.97;3.30;;;7.20;99.90;;;;;;4184816;28;20490;-80
2022/04/05 10:11:16;;;;;;;9.10;3.27;;;7.30;99.90;;;;;;4177153;28;20473;-80
2022/04/05 10:13:19;;;;;;;7.67;3.27;;;7.40;99.90;;;;;;4177933;28;20466;-80
2022/04/05 10:15:21;;;;;;;10.40;3.13;;;7.60;99.90;;;;;;4182452;28;20475;-80
2022/04/05 10:17:26;;;;;;;12.57;2.97;;;7.70;99.90;;;;;;4178041;28;20571;-81
2022/04/05 10:19:29;;;;;;;11.50;3.03;;;7.80;99.90;;;;;;4174761;28;20472;-80
2022/04/05 10:21:34;;;;;;;6.83;2.97;;;8.30;99.90;;;;;;4179482;28;20491;-81
2022/04/05 10:23:39;;;;;;;10.80;2.77;;;8.00;99.90;;;;;;4177916;28;20791;-83
2022/04/05 10:25:42;;;;;;;9.63;3.07;;;8.10;99.90;;;;;;4182580;28;20503;-81
2022/04/05 10:27:48;;;;;;;9.03;3.00;;;8.20;99.90;;;;;;4178793;28;20584;-81
2022/04/05 10:29:58;;;;;;;5.50;2.90;;;8.20;99.90;;;;;;4176509;28;20448;-83
2022/04/05 10:32:08;;;;;;;5.67;2.90;;;8.30;99.90;;;;;;4176808;28;20544;-82
2022/04/05 10:36:33;;;;;;;5.77;3.07;;;8.40;99.90;;;;;;4183510;28;20923;-83
2022/04/05 10:38:35;;;;;;;7.00;2.90;;;8.50;99.90;;;;;;4176792;28;20489;-84
2022/04/05 10:40:37;;;;;;;8.00;2.97;;;8.60;99.90;;;;;;4177043;28;20522;-83
2022/04/05 10:42:42;;;;;;;7.27;2.90;;;9.00;99.90;;;;;;4175926;28;20510;-83
2022/04/05 10:44:49;;;;;;;7.37;2.87;;;8.80;99.90;;;;;;4177371;28;20468;-81
2022/04/05 10:46:57;;;;;;;7.20;2.70;;;8.90;99.90;;;;;;4176881;28;20468;-82
2022/04/05 10:48:59;;;;;;;8.27;3.00;;;9.00;99.90;;;;;;4179449;28;20480;-83